createdAt,value
2017-07-21T00:02:07.626Z,71.11
2017-07-21T00:04:34.017Z,69.11
2017-07-21T00:07:00.359Z,71.38
2017-07-21T00:09:26.693Z,74.99
2017-07-21T00:11:53.067Z,73.12
2017-07-21T00:14:19.421Z,69.43
2017-07-21T00:16:45.759Z,73.03
2017-07-21T00:19:12.113Z,70.71
2017-07-21T00:21:38.442Z,70.39
2017-07-21T00:24:04.787Z,75.43
2017-07-21T00:26:31.154Z,72.24
2017-07-21T00:28:57.485Z,74.17
2017-07-21T00:31:23.833Z,68.83
2017-07-21T00:33:50.164Z,70.80
2017-07-21T00:36:16.493Z,71.05
2017-07-21T00:38:42.833Z,68.51
2017-07-21T00:41:09.183Z,67.92
2017-07-21T00:43:35.552Z,72.11
2017-07-21T00:46:01.935Z,74.51
2017-07-21T00:48:28.287Z,73.83
2017-07-21T00:50:54.653Z,73.66
2017-07-21T00:53:20.983Z,75.15
2017-07-21T00:55:47.336Z,72.32
2017-07-21T00:58:13.675Z,72.89
2017-07-21T01:00:40.029Z,73.18
2017-07-21T01:03:06.347Z,76.08
2017-07-21T01:05:32.683Z,77.31
2017-07-21T01:07:59.027Z,71.70
2017-07-21T01:10:25.365Z,70.80
2017-07-21T01:12:51.757Z,71.97
2017-07-21T01:15:18.087Z,72.42
2017-07-21T01:17:44.446Z,71.00
2017-07-21T01:20:10.825Z,69.00
2017-07-21T01:22:37.153Z,71.70
2017-07-21T01:25:03.513Z,71.97
2017-07-21T01:27:29.875Z,73.33
2017-07-21T01:29:56.255Z,70.98
2017-07-21T01:32:22.581Z,70.64
2017-07-21T01:34:48.922Z,68.74
2017-07-21T01:37:15.279Z,67.88
2017-07-21T01:39:41.667Z,71.81
2017-07-21T01:42:08.034Z,74.91
2017-07-21T01:44:34.374Z,71.32
2017-07-21T01:47:00.786Z,67.82
2017-07-21T01:49:27.195Z,68.53
2017-07-21T01:51:53.655Z,67.74
2017-07-21T01:54:20.010Z,71.23
2017-07-21T01:56:46.390Z,69.65
2017-07-21T01:59:12.765Z,68.68
2017-07-21T02:01:39.159Z,69.33
2017-07-21T02:04:05.489Z,71.66
2017-07-21T02:06:31.846Z,70.59
2017-07-21T02:08:58.195Z,74.45
2017-07-21T02:11:24.525Z,71.84
2017-07-21T02:13:50.866Z,70.23
2017-07-21T02:16:17.199Z,70.47
2017-07-21T02:18:43.529Z,71.22
2017-07-21T02:21:09.865Z,71.40
2017-07-21T02:23:36.228Z,75.93
2017-07-21T02:26:02.573Z,78.09
2017-07-21T02:28:28.921Z,77.46
2017-07-21T02:30:55.267Z,76.34
2017-07-21T02:33:21.608Z,73.03
2017-07-21T02:35:47.929Z,74.53
2017-07-21T02:38:14.275Z,75.43
2017-07-21T02:40:40.624Z,77.29
2017-07-21T02:43:06.973Z,77.13
2017-07-21T02:45:33.304Z,76.26
2017-07-21T02:47:59.621Z,73.62
2017-07-21T02:50:25.987Z,72.05
2017-07-21T02:52:52.353Z,71.07
2017-07-21T02:55:18.703Z,73.75
2017-07-21T02:57:45.051Z,72.96
2017-07-21T03:00:11.438Z,73.48
2017-07-21T03:02:37.822Z,73.24
2017-07-21T03:05:04.160Z,69.22
2017-07-21T03:07:30.505Z,74.91
2017-07-21T03:09:56.882Z,77.24
2017-07-21T03:12:23.235Z,78.70
2017-07-21T03:14:49.589Z,79.41
2017-07-21T03:17:15.928Z,79.86
2017-07-21T03:19:42.304Z,81.47
2017-07-21T03:22:08.983Z,80.91
2017-07-21T03:24:35.335Z,77.98
2017-07-21T03:27:01.700Z,77.30
2017-07-21T03:29:28.028Z,76.42
2017-07-21T03:31:54.430Z,74.77
2017-07-21T03:34:20.780Z,72.74
2017-07-21T03:36:47.129Z,73.49
2017-07-21T03:39:13.463Z,74.38
2017-07-21T03:41:39.829Z,77.36
2017-07-21T03:44:06.178Z,77.75
2017-07-21T03:46:32.881Z,79.34
2017-07-21T03:48:59.214Z,80.19
2017-07-21T03:51:25.540Z,78.57
2017-07-21T03:53:51.875Z,77.41
2017-07-21T03:56:18.242Z,77.29
2017-07-21T03:58:44.597Z,78.35
2017-07-21T04:01:10.928Z,77.67
2017-07-21T04:03:37.273Z,79.83
2017-07-21T04:06:03.646Z,77.98
2017-07-21T04:08:30.003Z,77.98
2017-07-21T04:10:56.366Z,76.03
2017-07-21T04:13:22.729Z,76.22
2017-07-21T04:15:49.081Z,74.41
2017-07-21T04:18:15.434Z,74.63
2017-07-21T04:20:42.668Z,74.43
2017-07-21T04:23:08.995Z,76.08
2017-07-21T04:25:35.348Z,78.95
2017-07-21T04:28:01.684Z,80.20
2017-07-21T04:30:28.008Z,78.28
2017-07-21T04:32:54.362Z,76.29
2017-07-21T04:35:20.716Z,74.15
2017-07-21T04:37:47.111Z,72.55
2017-07-21T04:40:13.422Z,73.29
2017-07-21T04:42:39.773Z,75.95
2017-07-21T04:45:06.104Z,78.76
2017-07-21T04:47:32.431Z,77.10
2017-07-21T04:49:58.780Z,74.39
2017-07-21T04:52:25.177Z,72.22
2017-07-21T04:54:51.544Z,72.81
2017-07-21T04:57:17.907Z,76.66
2017-07-21T04:59:44.243Z,72.39
2017-07-21T05:02:10.614Z,72.28
2017-07-21T05:04:36.946Z,74.32
2017-07-21T05:07:03.318Z,72.96
2017-07-21T05:09:29.681Z,72.57
2017-07-21T05:11:56.031Z,72.33
2017-07-21T05:14:22.363Z,72.13
2017-07-21T05:16:48.704Z,76.86
2017-07-21T05:19:15.055Z,77.30
2017-07-21T05:21:41.396Z,76.72
2017-07-21T05:24:08.273Z,77.50
2017-07-21T05:26:34.592Z,75.35
2017-07-21T05:29:00.949Z,75.23
2017-07-21T05:31:27.302Z,72.59
2017-07-21T05:33:53.645Z,69.54
2017-07-21T05:36:20.000Z,66.61
2017-07-21T05:38:46.348Z,66.76
2017-07-21T05:41:12.695Z,66.53
2017-07-21T05:43:39.052Z,66.89
2017-07-21T05:46:05.400Z,67.10
2017-07-21T05:48:32.079Z,66.63
2017-07-21T05:50:58.418Z,65.34
2017-07-21T05:53:24.745Z,65.13
2017-07-21T05:55:51.109Z,64.73
2017-07-21T05:58:17.438Z,64.82
2017-07-21T06:00:43.769Z,65.19
2017-07-21T06:03:10.122Z,65.17
2017-07-21T06:05:36.475Z,64.39
2017-07-21T06:08:02.848Z,66.30
2017-07-21T06:10:29.222Z,64.62
2017-07-21T06:12:55.573Z,65.11
2017-07-21T06:15:21.956Z,65.10
2017-07-21T06:17:48.317Z,65.46
2017-07-21T06:20:14.690Z,66.85
2017-07-21T06:22:41.474Z,64.11
2017-07-21T06:25:07.823Z,63.00
2017-07-21T06:27:34.189Z,63.83
2017-07-21T06:30:00.504Z,65.55
2017-07-21T06:32:26.857Z,64.32
2017-07-21T06:34:53.214Z,65.19
2017-07-21T06:37:19.572Z,64.46
2017-07-21T06:39:45.912Z,63.95
2017-07-21T06:42:12.265Z,63.04
2017-07-21T06:44:38.611Z,61.43
2017-07-21T06:47:04.988Z,61.55
2017-07-21T06:49:31.331Z,61.62
2017-07-21T06:51:57.679Z,62.46
2017-07-21T06:54:24.043Z,62.49
2017-07-21T06:56:50.384Z,60.54
2017-07-21T06:59:16.772Z,61.58
2017-07-21T07:01:43.157Z,60.67
2017-07-21T07:04:09.513Z,58.64
2017-07-21T07:06:35.884Z,58.31
2017-07-21T07:09:02.267Z,59.00
2017-07-21T07:11:28.610Z,58.25
2017-07-21T07:13:54.948Z,57.87
2017-07-21T07:16:21.303Z,59.26
2017-07-21T07:18:47.663Z,59.45
2017-07-21T07:21:14.023Z,61.32
2017-07-21T07:23:40.406Z,59.12
2017-07-21T07:26:06.779Z,56.89
2017-07-21T07:28:33.102Z,57.90
2017-07-21T07:30:59.452Z,57.90
2017-07-21T07:33:25.829Z,58.81
2017-07-21T07:35:52.180Z,58.60
2017-07-21T07:38:18.520Z,57.68
2017-07-21T07:40:44.868Z,59.57
2017-07-21T07:43:11.186Z,55.91
2017-07-21T07:45:37.513Z,56.82
2017-07-21T07:48:03.824Z,56.36
2017-07-21T07:50:30.194Z,56.18
2017-07-21T07:52:56.538Z,56.55
2017-07-21T07:55:22.894Z,58.65
2017-07-21T07:57:49.275Z,52.42
2017-07-21T08:00:15.644Z,54.79
2017-07-21T08:02:41.988Z,56.98
2017-07-21T08:05:08.328Z,53.82
2017-07-21T08:07:34.716Z,58.35
2017-07-21T08:10:01.057Z,52.51
2017-07-21T08:12:27.417Z,51.84
2017-07-21T08:14:53.793Z,49.55
2017-07-21T08:17:20.145Z,52.37
2017-07-21T08:19:46.466Z,49.87
2017-07-21T08:22:12.822Z,50.21
2017-07-21T08:24:39.203Z,48.17
2017-07-21T08:27:05.606Z,48.75
2017-07-21T08:29:31.947Z,48.80
2017-07-21T08:31:58.294Z,47.54
2017-07-21T08:34:24.632Z,48.47
2017-07-21T08:36:50.972Z,48.80
2017-07-21T08:39:17.308Z,47.88
2017-07-21T08:41:43.674Z,44.90
2017-07-21T08:44:10.055Z,45.23
2017-07-21T08:46:36.442Z,47.65
2017-07-21T08:49:02.779Z,46.84
2017-07-21T08:51:29.107Z,45.02
2017-07-21T08:53:55.453Z,44.89
2017-07-21T08:56:21.813Z,45.47
2017-07-21T08:58:48.187Z,44.97
2017-07-21T09:01:14.524Z,42.81
2017-07-21T09:03:40.872Z,42.22
2017-07-21T09:06:07.256Z,42.69
2017-07-21T09:08:33.612Z,41.72
2017-07-21T09:10:59.944Z,43.46
2017-07-21T09:13:26.310Z,42.32
2017-07-21T09:15:52.657Z,40.05
2017-07-21T09:18:19.010Z,42.80
2017-07-21T09:20:45.402Z,40.84
2017-07-21T09:23:11.772Z,42.79
2017-07-21T09:25:38.103Z,40.77
2017-07-21T09:28:04.457Z,41.05
2017-07-21T09:30:30.835Z,40.50
2017-07-21T09:32:57.195Z,38.97
2017-07-21T09:35:23.525Z,38.31
2017-07-21T09:37:49.877Z,40.17
2017-07-21T09:40:16.241Z,40.41
2017-07-21T09:42:42.595Z,38.80
2017-07-21T09:45:09.004Z,38.73
2017-07-21T09:47:35.360Z,38.37
2017-07-21T09:50:01.734Z,41.28
2017-07-21T09:52:28.079Z,40.55
2017-07-21T09:54:54.440Z,36.90
2017-07-21T09:57:20.799Z,36.82
2017-07-21T09:59:47.164Z,36.83
2017-07-21T10:02:13.538Z,39.96
2017-07-21T10:04:39.789Z,39.74
2017-07-21T10:07:06.137Z,37.95
2017-07-21T10:09:32.497Z,36.40
2017-07-21T10:11:58.830Z,38.52
2017-07-21T10:14:25.179Z,36.89
2017-07-21T10:16:51.527Z,35.99
2017-07-21T10:19:17.862Z,37.58
2017-07-21T10:21:44.217Z,39.05
2017-07-21T10:24:10.572Z,36.86
2017-07-21T10:26:36.956Z,35.97
2017-07-21T10:29:03.305Z,37.82
2017-07-21T10:31:29.687Z,37.89
2017-07-21T10:33:56.051Z,36.46
2017-07-21T10:36:22.403Z,37.54
2017-07-21T10:38:48.771Z,35.63
2017-07-21T10:41:15.100Z,35.79
2017-07-21T10:43:41.467Z,36.24
2017-07-21T10:46:07.841Z,37.21
2017-07-21T10:48:34.183Z,36.56
2017-07-21T10:51:00.521Z,34.61
2017-07-21T10:53:26.877Z,36.52
2017-07-21T10:55:53.254Z,37.80
2017-07-21T10:58:19.625Z,37.56
2017-07-21T11:00:46.010Z,37.36
2017-07-21T11:03:12.359Z,35.15
2017-07-21T11:05:38.695Z,34.60
2017-07-21T11:08:05.055Z,32.98
2017-07-21T11:10:31.430Z,36.40
2017-07-21T11:12:57.774Z,33.11
2017-07-21T11:15:24.109Z,34.35
2017-07-21T11:17:50.482Z,33.27
2017-07-21T11:20:16.891Z,33.19
2017-07-21T11:22:43.257Z,33.26
2017-07-21T11:25:09.593Z,33.79
2017-07-21T11:27:35.932Z,34.49
2017-07-21T11:30:02.255Z,35.08
2017-07-21T11:32:28.573Z,32.54
2017-07-21T11:34:54.890Z,32.62
2017-07-21T11:37:21.210Z,32.47
2017-07-21T11:39:47.577Z,32.72
2017-07-21T11:42:13.942Z,34.36
2017-07-21T11:44:40.264Z,33.75
2017-07-21T11:47:06.612Z,35.59
2017-07-21T11:49:32.999Z,34.73
2017-07-21T11:51:59.332Z,33.60
2017-07-21T11:54:25.678Z,34.38
2017-07-21T11:56:52.002Z,33.05
2017-07-21T11:59:18.335Z,30.97
2017-07-21T12:01:44.698Z,30.70
2017-07-21T12:04:11.032Z,32.36
2017-07-21T12:06:37.371Z,34.63
2017-07-21T12:09:03.824Z,33.70
2017-07-21T12:11:30.163Z,33.86
2017-07-21T12:13:56.507Z,29.89
2017-07-21T12:16:22.854Z,30.86
2017-07-21T12:18:49.179Z,30.37
2017-07-21T12:21:15.553Z,29.50
2017-07-21T12:23:41.913Z,28.62
2017-07-21T12:26:08.271Z,28.32
2017-07-21T12:28:34.612Z,29.90
2017-07-21T12:31:00.944Z,29.51
2017-07-21T12:33:27.309Z,31.60
2017-07-21T12:35:53.675Z,33.67
2017-07-21T12:38:20.050Z,33.69
2017-07-21T12:40:46.364Z,33.00
2017-07-21T12:43:12.718Z,32.19
2017-07-21T12:45:39.052Z,33.69
2017-07-21T12:48:05.420Z,34.90
2017-07-21T12:50:31.763Z,35.35
2017-07-21T12:52:58.111Z,33.30
2017-07-21T12:55:24.440Z,34.61
2017-07-21T12:57:50.784Z,32.27
2017-07-21T13:00:17.135Z,31.94
2017-07-21T13:02:43.514Z,33.43
2017-07-21T13:05:09.918Z,33.40
2017-07-21T13:07:36.285Z,34.94
2017-07-21T13:10:02.665Z,33.09
2017-07-21T13:12:29.048Z,35.05
2017-07-21T13:14:55.387Z,34.54
2017-07-21T13:17:21.787Z,34.81
2017-07-21T13:19:48.176Z,37.07
2017-07-21T13:22:14.550Z,35.82
2017-07-21T13:24:41.331Z,34.25
2017-07-21T13:27:07.760Z,31.37
2017-07-21T13:29:34.099Z,32.22
2017-07-21T13:32:00.461Z,35.06
2017-07-21T13:34:26.813Z,33.16
2017-07-21T13:36:53.166Z,31.63
2017-07-21T13:39:19.541Z,32.84
2017-07-21T13:41:45.891Z,32.85
2017-07-21T13:44:12.308Z,35.02
2017-07-21T13:46:38.657Z,32.87
2017-07-21T13:49:05.018Z,30.59
2017-07-21T13:51:31.398Z,32.27
2017-07-21T13:53:57.811Z,32.06
2017-07-21T13:56:24.211Z,31.65
2017-07-21T13:58:50.567Z,33.58
2017-07-21T14:01:16.933Z,32.37
2017-07-21T14:03:43.277Z,30.73
2017-07-21T14:06:09.625Z,29.81
2017-07-21T14:08:35.969Z,31.68
2017-07-21T14:11:02.346Z,32.31
2017-07-21T14:13:28.690Z,30.71
2017-07-21T14:15:55.076Z,31.28
2017-07-21T14:18:21.484Z,31.49
2017-07-21T14:20:47.861Z,30.34
2017-07-21T14:23:14.260Z,29.98
2017-07-21T14:25:40.620Z,30.07
2017-07-21T14:28:06.972Z,30.50
2017-07-21T14:30:33.323Z,30.54
2017-07-21T14:32:59.693Z,31.28
2017-07-21T14:35:26.073Z,30.69
2017-07-21T14:37:52.443Z,30.06
2017-07-21T14:40:18.803Z,30.82
2017-07-21T14:42:45.149Z,30.37
2017-07-21T14:45:11.505Z,29.14
2017-07-21T14:47:37.903Z,31.67
2017-07-21T14:50:04.257Z,29.40
2017-07-21T14:52:30.689Z,28.98
2017-07-21T14:54:57.085Z,29.69
2017-07-21T14:57:23.476Z,29.75
2017-07-21T14:59:49.847Z,31.77
2017-07-21T15:02:16.222Z,31.00
2017-07-21T15:04:42.575Z,30.93
2017-07-21T15:07:08.917Z,31.32
2017-07-21T15:09:35.317Z,29.02
2017-07-21T15:12:01.674Z,29.45
2017-07-21T15:14:28.027Z,30.62
2017-07-21T15:16:54.413Z,29.48
2017-07-21T15:19:20.794Z,31.21
2017-07-21T15:21:47.171Z,29.62
2017-07-21T15:24:13.532Z,31.05
2017-07-21T15:26:39.886Z,29.73
2017-07-21T15:29:06.271Z,31.35
2017-07-21T15:31:32.650Z,31.50
2017-07-21T15:33:59.232Z,33.51
2017-07-21T15:36:26.024Z,31.03
2017-07-21T15:38:52.501Z,30.85
2017-07-21T15:41:18.879Z,30.31
2017-07-21T15:43:45.261Z,30.44
2017-07-21T15:46:11.631Z,30.13
2017-07-21T15:48:37.988Z,28.75
2017-07-21T15:51:04.348Z,29.70
2017-07-21T15:53:30.718Z,31.42
2017-07-21T15:55:57.086Z,32.28
2017-07-21T15:58:23.470Z,31.68
2017-07-21T16:00:50.317Z,31.05
2017-07-21T16:03:18.325Z,32.17
2017-07-21T16:05:44.775Z,29.15
2017-07-21T16:08:11.122Z,31.53
2017-07-21T16:10:37.491Z,32.26
2017-07-21T16:13:03.860Z,31.34
2017-07-21T16:15:30.234Z,31.39
2017-07-21T16:17:57.829Z,30.29
2017-07-21T16:20:24.214Z,30.54
2017-07-21T16:22:50.607Z,30.84
2017-07-21T16:25:16.966Z,30.71
2017-07-21T16:27:44.293Z,31.50
2017-07-21T16:30:10.751Z,30.69
2017-07-21T16:32:37.097Z,30.68
2017-07-21T16:35:03.864Z,31.06
2017-07-21T16:37:30.212Z,29.58
2017-07-21T16:52:58.200Z,30.56
2017-07-21T16:55:24.576Z,31.73
2017-07-21T16:57:50.936Z,36.23
2017-07-21T17:00:17.282Z,36.41
2017-07-21T17:02:43.635Z,33.68
2017-07-21T17:05:09.998Z,32.85
2017-07-21T17:07:36.331Z,36.77
2017-07-21T17:10:03.170Z,34.05
2017-07-21T17:12:29.533Z,34.45
2017-07-21T17:14:55.923Z,33.68
2017-07-21T17:17:22.273Z,32.98
2017-07-21T17:19:48.607Z,36.07
2017-07-21T17:22:14.954Z,37.61
2017-07-21T17:24:41.312Z,37.62
2017-07-21T17:27:07.694Z,38.38
2017-07-21T17:29:34.281Z,37.47
2017-07-21T17:32:01.090Z,36.88
2017-07-21T17:34:27.473Z,37.44
2017-07-21T17:36:53.828Z,36.96
2017-07-21T17:39:20.409Z,35.90
2017-07-21T17:41:46.801Z,36.12
2017-07-21T17:44:13.526Z,35.26
2017-07-21T17:46:39.932Z,35.49
2017-07-21T17:49:06.278Z,37.92
2017-07-21T17:51:32.663Z,40.13
2017-07-21T17:53:59.014Z,39.71
2017-07-21T17:56:25.380Z,37.16
2017-07-21T17:58:51.701Z,42.58
2017-07-21T18:01:18.051Z,41.91
2017-07-21T18:03:44.392Z,39.48
2017-07-21T18:06:11.122Z,38.97
2017-07-21T18:08:37.474Z,38.15
2017-07-21T18:11:03.804Z,37.25
2017-07-21T18:13:30.159Z,38.78
2017-07-21T18:15:56.520Z,38.81
2017-07-21T18:18:22.894Z,42.06
2017-07-21T18:20:49.257Z,39.08
2017-07-21T18:23:15.573Z,42.55
2017-07-21T18:25:41.935Z,43.96
2017-07-21T18:28:08.288Z,44.14
2017-07-21T18:30:34.635Z,43.56
2017-07-21T18:33:01.002Z,43.06
2017-07-21T18:35:27.351Z,42.17
2017-07-21T18:37:53.686Z,43.53
2017-07-21T18:40:20.069Z,45.42
2017-07-21T18:42:46.420Z,46.32
2017-07-21T18:45:12.786Z,42.35
2017-07-21T18:47:39.140Z,45.28
2017-07-21T18:50:05.525Z,43.05
2017-07-21T18:52:31.906Z,44.12
2017-07-21T18:54:58.287Z,45.27
2017-07-21T18:57:24.620Z,45.17
2017-07-21T18:59:50.995Z,47.93
2017-07-21T19:02:17.377Z,48.77
2017-07-21T19:04:43.727Z,48.97
2017-07-21T19:07:10.088Z,48.29
2017-07-21T19:09:36.427Z,46.83
2017-07-21T19:12:02.771Z,44.69
2017-07-21T19:14:29.161Z,43.52
2017-07-21T19:16:55.524Z,44.50
2017-07-21T19:19:21.881Z,43.23
2017-07-21T19:21:48.254Z,43.04
2017-07-21T19:24:14.623Z,43.20
2017-07-21T19:26:40.941Z,43.46
2017-07-21T19:29:07.297Z,43.53
2017-07-21T19:31:33.636Z,43.84
2017-07-21T19:33:59.967Z,43.90
2017-07-21T19:36:26.315Z,43.85
2017-07-21T19:38:52.662Z,44.21
2017-07-21T19:41:19.036Z,44.40
2017-07-21T19:43:45.366Z,44.26
2017-07-21T19:46:11.726Z,44.42
2017-07-21T19:48:38.072Z,44.87
2017-07-21T19:51:04.458Z,44.92
2017-07-21T19:53:30.825Z,45.20
2017-07-21T19:55:57.159Z,45.23
2017-07-21T19:58:23.515Z,45.38
2017-07-21T20:00:49.887Z,45.26
2017-07-21T20:03:16.269Z,45.41
2017-07-21T20:05:42.646Z,45.30
2017-07-21T20:08:09.019Z,46.05
2017-07-21T20:10:35.388Z,46.27
2017-07-21T20:13:01.737Z,46.76
2017-07-21T20:15:28.112Z,47.29
2017-07-21T20:17:54.565Z,47.66
2017-07-21T20:20:20.977Z,47.61
2017-07-21T20:22:47.332Z,47.41
2017-07-21T20:25:13.687Z,47.40
2017-07-21T20:27:40.062Z,47.65
2017-07-21T20:30:06.435Z,47.77
2017-07-21T20:32:32.820Z,47.79
2017-07-21T20:34:59.170Z,48.30
2017-07-21T20:37:25.535Z,48.02
2017-07-21T20:39:51.903Z,48.39
2017-07-21T20:42:18.298Z,48.46
2017-07-21T20:44:44.660Z,48.46
2017-07-21T20:47:11.028Z,48.40
2017-07-21T20:49:37.391Z,48.61
2017-07-21T20:52:03.748Z,48.68
2017-07-21T20:54:30.103Z,49.44
2017-07-21T20:56:56.452Z,49.28
2017-07-21T20:59:22.812Z,48.68
2017-07-21T21:01:49.340Z,48.61
2017-07-21T21:04:15.729Z,48.70
2017-07-21T21:06:42.072Z,48.72
2017-07-21T21:09:08.425Z,49.05
2017-07-21T21:11:34.943Z,48.91
2017-07-21T21:14:01.303Z,48.93
2017-07-21T21:16:28.001Z,49.31
2017-07-21T21:18:54.349Z,49.11
2017-07-21T21:21:20.732Z,49.16
2017-07-21T21:23:47.073Z,49.17
2017-07-21T21:26:13.441Z,48.75
2017-07-21T21:28:39.795Z,49.27
2017-07-21T21:31:06.152Z,49.72
2017-07-21T21:33:32.504Z,49.85
2017-07-21T21:35:58.837Z,50.47
2017-07-21T21:38:25.188Z,50.42
2017-07-21T21:40:51.593Z,50.05
2017-07-21T21:43:19.399Z,50.17
2017-07-21T21:45:45.776Z,50.32
2017-07-21T21:48:12.132Z,50.55
2017-07-21T21:50:38.461Z,50.72
2017-07-21T21:53:04.800Z,51.43
2017-07-21T21:55:31.172Z,50.97
2017-07-21T21:57:57.536Z,51.18
2017-07-21T22:00:23.897Z,51.89
2017-07-21T22:02:50.256Z,51.86
2017-07-21T22:05:16.602Z,52.24
2017-07-21T22:07:42.956Z,52.44
2017-07-21T22:10:09.311Z,52.17
2017-07-21T22:12:35.679Z,51.75
2017-07-21T22:15:02.138Z,52.89
2017-07-21T22:17:28.487Z,53.02
2017-07-21T22:19:54.878Z,53.26
2017-07-21T22:22:21.237Z,53.78
2017-07-21T22:24:47.594Z,53.42
2017-07-21T22:27:13.924Z,54.36
2017-07-21T22:29:40.302Z,53.82
2017-07-21T22:32:06.669Z,54.00
2017-07-21T22:34:33.098Z,54.06
2017-07-21T22:36:59.435Z,53.91
2017-07-21T22:39:25.817Z,53.84
2017-07-21T22:41:52.182Z,54.17
2017-07-21T22:44:18.515Z,53.47
2017-07-21T22:46:44.855Z,53.68
2017-07-21T22:49:11.207Z,54.44
2017-07-21T22:51:37.588Z,53.61
2017-07-21T22:54:03.941Z,54.31
2017-07-21T22:56:30.320Z,54.78
2017-07-21T22:58:56.657Z,54.05
2017-07-21T23:01:23.041Z,53.64
2017-07-21T23:03:49.373Z,53.62
2017-07-21T23:06:15.741Z,53.80
2017-07-21T23:08:42.104Z,55.65
2017-07-21T23:11:08.513Z,55.34
2017-07-21T23:13:34.905Z,54.83
2017-07-21T23:16:01.274Z,55.03
2017-07-21T23:18:27.605Z,54.53
2017-07-21T23:20:53.975Z,54.55
2017-07-21T23:23:20.328Z,54.99
2017-07-21T23:25:46.687Z,54.97
2017-07-21T23:28:13.033Z,55.98
2017-07-21T23:30:39.417Z,54.85
2017-07-21T23:33:05.759Z,56.30
2017-07-21T23:35:32.123Z,56.67
2017-07-21T23:37:58.494Z,55.71
2017-07-21T23:40:24.844Z,55.75
2017-07-21T23:42:51.245Z,55.63
2017-07-21T23:45:17.617Z,56.54
2017-07-21T23:47:43.976Z,56.51
2017-07-21T23:50:10.332Z,56.39
2017-07-21T23:52:36.680Z,56.72
2017-07-21T23:55:03.042Z,56.70
2017-07-21T23:57:29.378Z,57.89
2017-07-21T23:59:55.736Z,56.90
